Time;durP1;ratioP1;P1;durP2;ratioP2;P2;SDS_P1;SDS_P2;PMS_P1;PMS_P2;Temp;Humidity;BMP_temperature;BMP_pressure;BME280_temperature;BME280_humidity;BME280_pressure;Samples;Min_cycle;Max_cycle;Signal;HPM_P1;HPM_P2
2022/09/06 00:02:24;;;;;;;4.30;3.90;;;;;;;22.11;56.85;98837.81;7034499;28;20695;-80
2022/09/06 00:05:46;;;;;;;4.47;3.50;;;;;;;22.17;56.31;98848.50;7038383;28;20520;-78
2022/09/06 00:09:07;;;;;;;4.10;3.70;;;;;;;22.43;55.43;98830.88;7040137;28;20274;-80
2022/09/06 00:12:29;;;;;;;3.70;3.30;;;;;;;22.15;56.29;98826.00;7028597;28;20235;-78
2022/09/06 00:15:52;;;;;;;9.57;3.77;;;;;;;22.15;56.70;98828.75;7004754;28;20294;-78
2022/09/06 00:19:13;;;;;;;4.13;3.57;;;;;;;21.89;56.91;98807.13;7006968;28;20271;-78
2022/09/06 00:22:35;;;;;;;5.70;3.50;;;;;;;21.86;57.19;98829.63;7005208;28;20214;-78
2022/09/06 00:26:03;;;;;;;5.07;3.70;;;;;;;22.34;56.07;98828.94;7005650;28;20222;-80
2022/09/06 00:29:24;;;;;;;4.83;3.30;;;;;;;22.34;55.58;98818.81;7003223;28;20211;-78
2022/09/06 00:32:47;;;;;;;4.43;4.00;;;;;;;22.17;55.99;98821.06;7005907;28;20294;-79
2022/09/06 00:36:10;;;;;;;4.20;3.80;;;;;;;21.74;56.82;98807.97;7007026;28;20734;-79
2022/09/06 00:39:31;;;;;;;5.50;3.60;;;;;;;21.79;56.81;98824.44;7005604;28;20194;-78
2022/09/06 00:42:53;;;;;;;4.13;3.33;;;;;;;21.82;57.32;98821.13;7005636;28;20222;-79
2022/09/06 00:46:17;;;;;;;4.27;3.80;;;;;;;21.50;58.19;98819.75;7004785;28;20315;-78
2022/09/06 00:49:43;;;;;;;4.33;3.77;;;;;;;21.67;57.65;98804.66;7002708;28;20263;-79
2022/09/06 00:53:05;;;;;;;5.87;4.23;;;;;;;21.27;59.04;98831.25;7002699;28;20352;-78
2022/09/06 00:56:27;;;;;;;5.50;4.00;;;;;;;21.98;56.83;98810.94;7002729;28;20239;-80
2022/09/06 00:59:49;;;;;;;3.90;3.33;;;;;;;22.28;55.50;98816.34;7004667;28;20365;-78
2022/09/06 01:03:11;;;;;;;4.03;2.93;;;;;;;22.02;56.43;98810.09;7002983;28;20241;-79
2022/09/06 01:06:42;;;;;;;4.70;4.30;;;;;;;21.54;57.59;98812.63;7002708;28;20324;-79
2022/09/06 01:10:20;;;;;;;4.03;3.73;;;;;;;21.89;57.18;98826.34;7003304;28;20232;-78
2022/09/06 01:13:56;;;;;;;4.07;3.67;;;;;;;21.80;56.85;98834.31;7005260;28;20241;-78
2022/09/06 01:17:30;;;;;;;5.97;4.00;;;;;;;21.57;57.71;98831.25;7003293;28;20243;-78
2022/09/06 01:21:00;;;;;;;3.60;3.30;;;;;;;21.77;57.47;98825.81;7005823;28;20245;-79
2022/09/06 01:24:42;;;;;;;3.93;3.60;;;;;;;22.10;55.73;98831.50;7020859;28;20202;-79
2022/09/06 01:28:26;;;;;;;4.93;3.97;;;;;;;21.89;56.30;98820.84;7004531;28;20712;-78
2022/09/06 01:31:52;;;;;;;4.67;3.70;;;;;;;21.93;56.46;98839.22;7003283;28;20194;-78
2022/09/06 01:35:18;;;;;;;6.00;4.23;;;;;;;21.56;57.33;98833.19;7002637;28;20232;-78
2022/09/06 01:38:40;;;;;;;4.77;3.93;;;;;;;21.87;56.68;98837.59;7002030;28;20183;-77
2022/09/06 01:42:05;;;;;;;4.33;3.93;;;;;;;21.97;56.12;98851.31;7003918;28;20593;-78
2022/09/06 01:45:34;;;;;;;6.17;3.67;;;;;;;21.67;57.12;98847.75;7006150;28;20316;-79
2022/09/06 01:49:08;;;;;;;9.77;4.30;;;;;;;21.39;58.01;98838.13;7005060;28;20303;-78
2022/09/06 01:52:34;;;;;;;5.43;3.77;;;;;;;21.78;56.35;98836.50;7003443;28;20187;-79
2022/09/06 01:56:00;;;;;;;5.30;3.60;;;;;;;21.62;56.89;98862.28;7002979;28;20624;-79
2022/09/06 01:59:31;;;;;;;6.30;4.13;;;;;;;21.47;58.16;98869.66;7002624;28;20722;-79
2022/09/06 02:03:01;;;;;;;6.50;4.00;;;;;;;21.52;57.67;98854.03;7025116;28;20197;-78
2022/09/06 02:06:27;;;;;;;6.03;4.20;;;;;;;21.30;58.22;98839.75;7011169;28;20234;-79
2022/09/06 02:09:52;;;;;;;5.17;4.67;;;;;;;21.10;58.58;98844.41;7008187;28;20575;-79
2022/09/06 02:13:14;;;;;;;5.40;4.00;;;;;;;21.16;58.91;98858.97;7004229;28;20275;-79
2022/09/06 02:16:37;;;;;;;5.90;4.30;;;;;;;21.26;58.85;98862.53;7001225;28;20438;-79
2022/09/06 02:20:03;;;;;;;4.17;3.77;;;;;;;21.28;58.37;98841.97;7002009;28;20234;-79
2022/09/06 02:23:28;;;;;;;5.03;4.50;;;;;;;21.76;56.92;98846.94;7002153;28;20192;-79
2022/09/06 02:26:50;;;;;;;4.60;4.20;;;;;;;21.73;56.62;98857.66;7001522;28;20261;-79
2022/09/06 02:30:12;;;;;;;4.93;4.53;;;;;;;20.95;59.03;98863.56;7001278;28;20202;-79
2022/09/06 02:33:34;;;;;;;4.50;4.10;;;;;;;20.88;60.17;98906.84;7002462;28;20290;-79
2022/09/06 02:36:57;;;;;;;4.63;4.20;;;;;;;20.98;59.95;98975.41;7002895;28;20219;-79
2022/09/06 02:40:19;;;;;;;5.40;4.37;;;;;;;20.95;60.17;98967.75;7004774;28;20213;-79
2022/09/06 02:43:42;;;;;;;5.83;4.40;;;;;;;20.95;59.18;98920.31;7007367;28;20240;-79
2022/09/06 02:47:04;;;;;;;5.43;4.87;;;;;;;21.27;58.63;98939.06;7006409;28;20312;-79
2022/09/06 02:50:26;;;;;;;4.60;4.13;;;;;;;21.67;57.58;98933.66;7006183;28;20207;-79
2022/09/06 02:53:49;;;;;;;5.37;4.27;;;;;;;21.86;56.53;98922.97;7005774;28;20261;-79
2022/09/06 02:57:10;;;;;;;4.77;4.33;;;;;;;21.08;58.89;98935.13;7010087;28;20229;-79
2022/09/06 03:00:32;;;;;;;5.33;4.57;;;;;;;21.48;58.38;98948.97;7005265;28;20210;-79
2022/09/06 03:03:54;;;;;;;6.90;4.40;;;;;;;21.22;58.71;98935.47;7007239;28;20212;-78
2022/09/06 03:07:16;;;;;;;5.43;4.50;;;;;;;21.62;59.11;98952.84;7006837;28;20295;-79
2022/09/06 03:10:39;;;;;;;5.47;4.90;;;;;;;22.02;58.22;98943.84;7006355;28;20209;-78
2022/09/06 03:14:00;;;;;;;7.80;5.53;;;;;;;22.32;59.07;98938.31;7004649;28;20208;-78
2022/09/06 03:17:22;;;;;;;8.27;5.30;;;;;;;22.07;59.52;98952.06;7004699;28;20225;-78
2022/09/06 03:20:43;;;;;;;7.47;5.30;;;;;;;21.87;59.22;98944.66;7017103;28;20668;-76
2022/09/06 03:24:05;;;;;;;9.50;5.80;;;;;;;20.97;63.71;98929.06;7033294;28;20243;-75
2022/09/06 03:27:29;;;;;;;8.23;5.43;;;;;;;20.63;65.31;98895.75;7033116;28;20271;-75
2022/09/06 03:30:51;;;;;;;5.80;5.30;;;;;;;20.92;65.11;98844.09;7017750;28;20285;-75
2022/09/06 03:34:13;;;;;;;6.50;5.83;;;;;;;21.92;62.98;98854.06;7004579;28;20862;-75
2022/09/06 03:37:35;;;;;;;7.70;6.10;;;;;;;22.02;62.13;98839.50;7001986;28;20354;-75
2022/09/06 03:40:56;;;;;;;6.50;5.80;;;;;;;21.58;62.63;98843.88;7004010;28;20287;-75
2022/09/06 03:44:19;;;;;;;6.90;5.23;;;;;;;21.63;62.48;98852.13;7003588;28;20207;-77
2022/09/06 03:47:41;;;;;;;6.00;5.40;;;;;;;22.19;61.53;98854.53;7002914;28;20246;-76
2022/09/06 03:51:02;;;;;;;5.87;5.27;;;;;;;22.26;61.13;98871.59;7003014;28;20291;-75
2022/09/06 03:54:24;;;;;;;5.90;5.40;;;;;;;22.43;60.86;98888.56;7003993;28;20253;-76
2022/09/06 03:57:45;;;;;;;6.57;5.80;;;;;;;22.28;61.92;98885.00;7003197;28;20629;-78
2022/09/06 04:01:10;;;;;;;9.87;5.67;;;;;;;22.37;62.14;98888.84;7003714;28;20239;-78
2022/09/06 04:04:32;;;;;;;9.73;7.23;;;;;;;22.05;63.15;98883.69;7003195;28;20244;-78
2022/09/06 04:07:53;;;;;;;7.30;6.60;;;;;;;22.40;62.77;98875.38;7002642;28;20409;-78
2022/09/06 04:11:15;;;;;;;12.23;6.90;;;;;;;22.31;62.73;98876.22;7003366;28;20349;-79
2022/09/06 04:14:36;;;;;;;7.53;6.50;;;;;;;22.41;62.31;98889.91;7002186;28;20209;-79
2022/09/06 04:17:59;;;;;;;6.80;6.17;;;;;;;22.46;62.01;98885.28;7001197;28;20264;-79
2022/09/06 04:21:21;;;;;;;7.37;6.37;;;;;;;22.51;61.72;98882.53;7001593;28;20217;-78
2022/09/06 04:24:42;;;;;;;8.97;6.90;;;;;;;22.54;62.07;98875.66;7001613;28;20241;-78
2022/09/06 04:28:04;;;;;;;6.60;6.00;;;;;;;22.62;61.34;98875.88;7002426;28;20371;-78
2022/09/06 04:31:26;;;;;;;8.87;6.70;;;;;;;22.50;61.90;98889.13;7004061;28;20293;-80
2022/09/06 04:34:49;;;;;;;7.20;6.50;;;;;;;22.52;61.54;98886.91;7002771;28;20253;-78
2022/09/06 04:38:11;;;;;;;6.40;5.80;;;;;;;22.53;61.17;98898.75;7015297;28;20249;-79
2022/09/06 04:41:33;;;;;;;7.13;6.13;;;;;;;22.19;61.79;98886.69;7023854;28;20289;-79
2022/09/06 04:44:54;;;;;;;6.90;6.10;;;;;;;22.38;61.87;98906.97;7028500;28;20300;-79
2022/09/06 04:48:16;;;;;;;7.37;6.67;;;;;;;22.34;61.97;98911.38;7009790;28;20313;-79
2022/09/06 04:51:39;;;;;;;7.43;6.70;;;;;;;22.50;61.48;98883.63;7003749;28;20213;-79
2022/09/06 04:55:00;;;;;;;6.60;6.00;;;;;;;22.33;62.97;98898.75;7016367;28;20258;-80
2022/09/06 04:58:22;;;;;;;6.87;5.53;;;;;;;22.34;63.33;98881.16;7028959;28;20205;-81
2022/09/06 05:01:43;;;;;;;6.97;6.30;;;;;;;22.51;62.36;98892.69;7009726;28;20291;-80
2022/09/06 05:05:05;;;;;;;9.53;6.90;;;;;;;22.64;62.49;98881.91;7007504;28;20258;-80
2022/09/06 05:08:28;;;;;;;7.00;6.30;;;;;;;22.54;61.99;98875.66;7011323;28;20312;-80
2022/09/06 05:11:50;;;;;;;7.90;6.33;;;;;;;22.78;61.59;98891.19;7030413;28;20291;-77
2022/09/06 05:15:13;;;;;;;6.80;5.70;;;;;;;22.48;61.45;98888.56;7029342;28;20666;-78
2022/09/06 05:18:35;;;;;;;7.80;6.47;;;;;;;22.49;61.95;98903.94;7029314;28;20291;-78
2022/09/06 05:21:56;;;;;;;8.20;7.40;;;;;;;21.70;64.77;98913.06;7030028;28;20208;-78
2022/09/06 05:25:19;;;;;;;8.53;7.17;;;;;;;20.55;69.85;98914.59;7029607;28;20317;-78
2022/09/06 05:28:41;;;;;;;7.13;6.37;;;;;;;21.68;66.39;98918.84;7030196;28;20254;-78
2022/09/06 05:32:02;;;;;;;6.87;6.13;;;;;;;22.06;64.73;98898.25;7044367;28;20190;-78
2022/09/06 05:35:24;;;;;;;6.63;5.27;;;;;;;22.60;62.91;98919.31;7045307;28;20275;-79
2022/09/06 05:38:45;;;;;;;5.40;4.90;;;;;;;22.76;62.24;98912.66;7031353;28;20246;-78
2022/09/06 05:42:08;;;;;;;6.80;6.10;;;;;;;22.20;63.31;98891.88;7029921;28;20335;-78
2022/09/06 05:45:30;;;;;;;6.40;5.80;;;;;;;22.77;62.91;98905.25;7021762;28;20249;-78
2022/09/06 05:48:53;;;;;;;6.70;6.10;;;;;;;22.73;62.87;98901.41;7017196;28;20294;-78
2022/09/06 05:52:16;;;;;;;6.93;6.07;;;;;;;22.83;62.28;98910.41;7029490;28;20219;-78
2022/09/06 05:55:37;;;;;;;6.63;6.03;;;;;;;22.76;62.65;98914.56;7029237;28;20232;-78
2022/09/06 05:59:00;;;;;;;7.63;6.20;;;;;;;22.74;63.05;98903.03;7017566;28;20264;-78
2022/09/06 06:02:22;;;;;;;6.40;5.80;;;;;;;22.85;62.99;98911.00;7001092;28;20213;-78
2022/09/06 06:05:46;;;;;;;7.57;6.47;;;;;;;23.08;62.15;98907.56;7001684;28;20226;-77
2022/09/06 06:09:08;;;;;;;7.00;6.20;;;;;;;23.16;62.40;98911.63;7000963;28;20322;-78
2022/09/06 06:12:29;;;;;;;5.97;5.37;;;;;;;22.80;61.90;98820.28;7001774;28;20678;-78
2022/09/06 06:15:54;;;;;;;6.40;5.10;;;;;;;23.46;61.07;98920.56;7005021;28;20224;-78
2022/09/06 06:19:15;;;;;;;5.33;4.83;;;;;;;23.37;59.52;98897.50;7006239;28;20310;-78
2022/09/06 06:22:37;;;;;;;5.30;4.43;;;;;;;23.36;60.34;98917.88;7032268;28;20244;-78
2022/09/06 06:25:59;;;;;;;5.47;4.87;;;;;;;23.52;59.34;98911.19;7035368;28;20216;-79
2022/09/06 06:29:21;;;;;;;5.40;4.53;;;;;;;23.59;58.93;98921.88;7025859;28;20762;-79
2022/09/06 06:32:44;;;;;;;5.20;4.50;;;;;;;23.82;58.32;98915.63;7006406;28;20350;-79
2022/09/06 06:36:07;;;;;;;6.87;4.47;;;;;;;23.87;58.01;98904.56;7030114;28;20274;-80
2022/09/06 06:39:28;;;;;;;4.90;4.40;;;;;;;23.76;58.12;98901.09;7038517;28;20610;-78
2022/09/06 06:42:50;;;;;;;4.70;4.30;;;;;;;23.30;59.83;98902.50;7033289;28;20291;-78
2022/09/06 06:46:13;;;;;;;4.43;4.03;;;;;;;23.80;58.51;98902.16;7023777;28;20259;-79
2022/09/06 06:49:36;;;;;;;6.73;4.60;;;;;;;23.74;59.05;98905.22;7026879;28;20240;-78
2022/09/06 06:52:58;;;;;;;4.70;4.30;;;;;;;23.69;58.29;98917.13;7034426;28;20619;-79
2022/09/06 06:56:21;;;;;;;5.80;4.33;;;;;;;23.31;59.76;98919.84;7033928;28;20288;-79
2022/09/06 06:59:42;;;;;;;4.80;4.40;;;;;;;23.44;58.94;98935.72;7032930;28;20215;-79
2022/09/06 07:03:04;;;;;;;6.60;4.53;;;;;;;23.48;58.56;98929.38;7025854;28;20322;-78
2022/09/06 07:06:27;;;;;;;6.30;4.53;;;;;;;23.31;59.47;98915.16;7010681;28;20304;-79
2022/09/06 07:09:51;;;;;;;4.93;4.27;;;;;;;23.25;60.16;98924.56;7031884;28;20265;-80
2022/09/06 07:13:13;;;;;;;4.90;3.90;;;;;;;24.42;56.53;98917.88;7017943;28;20336;-79
2022/09/06 07:16:34;;;;;;;5.57;3.87;;;;;;;24.56;56.48;98921.56;7022676;28;20702;-79
2022/09/06 07:19:56;;;;;;;5.63;3.97;;;;;;;24.35;56.44;98923.72;7015509;28;20208;-80
2022/09/06 07:23:19;;;;;;;4.73;3.77;;;;;;;25.87;53.02;98900.22;7015139;28;20317;-79
2022/09/06 07:26:40;;;;;;;3.93;3.60;;;;;;;26.51;50.72;98899.34;7016226;28;20225;-79
2022/09/06 07:30:02;;;;;;;4.03;3.57;;;;;;;27.12;48.82;98891.47;7031274;28;20238;-80
2022/09/06 07:33:23;;;;;;;4.93;3.27;;;;;;;27.44;48.53;98902.44;7025681;28;20193;-80
2022/09/06 07:36:45;;;;;;;4.80;3.70;;;;;;;25.86;51.53;98890.28;7023654;28;20302;-79
2022/09/06 07:40:09;;;;;;;5.23;4.10;;;;;;;25.30;53.45;98903.31;7019411;28;20197;-79
2022/09/06 07:43:31;;;;;;;3.93;3.50;;;;;;;25.16;54.81;98901.53;7020028;28;20224;-78
2022/09/06 07:46:53;;;;;;;4.77;3.80;;;;;;;25.65;52.84;98904.72;7033330;28;20228;-79
2022/09/06 07:50:14;;;;;;;5.03;3.70;;;;;;;26.54;50.12;98902.34;7003999;28;20381;-79
2022/09/06 07:53:36;;;;;;;3.57;3.13;;;;;;;26.86;49.20;98880.16;7004719;28;20245;-80
2022/09/06 07:56:59;;;;;;;3.53;3.00;;;;;;;27.66;47.54;98892.19;7004118;28;20592;-79
2022/09/06 08:00:21;;;;;;;5.97;3.50;;;;;;;28.49;45.69;98895.06;7003693;28;20206;-79
2022/09/06 08:03:43;;;;;;;3.67;3.17;;;;;;;28.44;44.96;98897.19;7004231;28;20206;-80
2022/09/06 08:07:04;;;;;;;5.97;3.73;;;;;;;28.81;44.59;98894.75;7002607;28;20598;-79
2022/09/06 08:10:26;;;;;;;5.03;3.37;;;;;;;28.97;44.42;98886.81;7003482;28;20708;-79
2022/09/06 08:13:54;;;;;;;4.07;3.47;;;;;;;29.05;43.20;98884.06;7002985;28;20681;-78
2022/09/06 08:17:15;;;;;;;3.77;3.30;;;;;;;29.29;42.95;98892.78;7003235;28;20364;-79
2022/09/06 08:20:37;;;;;;;3.30;3.00;;;;;;;29.27;42.55;98877.56;7002098;28;20232;-78
2022/09/06 08:24:00;;;;;;;4.83;3.43;;;;;;;29.12;42.87;98878.84;7002540;28;20287;-78
2022/09/06 08:27:21;;;;;;;4.77;3.00;;;;;;;29.33;42.74;98892.94;7001177;28;20232;-79
2022/09/06 08:30:44;;;;;;;3.23;3.03;;;;;;;30.10;41.26;98877.13;7002067;28;20688;-79
2022/09/06 08:34:06;;;;;;;3.97;3.00;;;;;;;30.27;40.52;98877.91;7002821;28;20209;-79
2022/09/06 08:37:27;;;;;;;3.20;2.90;;;;;;;30.06;40.82;98874.16;7001252;28;20301;-79
2022/09/06 08:40:50;;;;;;;4.67;3.00;;;;;;;30.11;41.27;98879.56;7022265;28;20245;-78
2022/09/06 08:44:13;;;;;;;4.03;3.23;;;;;;;30.05;41.50;98878.09;7002937;28;20291;-78
2022/09/06 08:47:36;;;;;;;3.53;3.17;;;;;;;30.56;40.05;98869.63;7020457;28;20220;-79
2022/09/06 08:51:11;;;;;;;4.30;3.03;;;;;;;30.77;39.49;98867.75;7016176;28;20677;-78
2022/09/06 08:54:36;;;;;;;3.50;3.20;;;;;;;31.00;38.82;98874.69;7029675;28;20247;-79
2022/09/06 08:58:09;;;;;;;3.03;2.83;;;;;;;31.17;39.20;98866.22;7029119;28;20187;-79
2022/09/06 09:01:45;;;;;;;3.53;2.90;;;;;;;31.17;39.00;98859.81;7030197;28;20329;-79
2022/09/06 09:05:19;;;;;;;3.77;3.03;;;;;;;31.60;37.47;98849.22;7029682;28;20574;-79
2022/09/06 09:08:46;;;;;;;3.80;3.40;;;;;;;31.32;37.93;98853.69;7029816;28;20232;-79
2022/09/06 09:12:08;;;;;;;3.97;3.20;;;;;;;31.97;37.46;98851.81;7029331;28;20204;-79
2022/09/06 09:15:30;;;;;;;3.40;2.93;;;;;;;32.48;36.08;98850.50;7028962;28;20235;-78
2022/09/06 09:18:54;;;;;;;4.77;3.07;;;;;;;32.57;36.44;98840.03;7028638;28;20304;-79
2022/09/06 09:22:18;;;;;;;3.97;3.40;;;;;;;32.04;35.77;98854.06;7020008;28;20197;-78
2022/09/06 09:25:40;;;;;;;5.13;3.10;;;;;;;30.76;38.54;98856.94;7008323;28;20622;-78
2022/09/06 09:29:02;;;;;;;5.17;3.50;;;;;;;31.04;38.93;98849.75;7019102;28;20701;-78
2022/09/06 09:32:29;;;;;;;7.37;3.87;;;;;;;31.41;38.60;98851.66;7014981;28;20218;-78
2022/09/06 09:35:51;;;;;;;5.30;3.40;;;;;;;31.48;37.82;98852.75;7001420;28;20231;-78
2022/09/06 09:39:14;;;;;;;4.13;3.63;;;;;;;32.09;35.97;98843.53;7002985;28;20206;-78
2022/09/06 09:42:37;;;;;;;3.57;3.10;;;;;;;31.90;36.53;98839.63;7012793;28;20344;-78
2022/09/06 09:46:10;;;;;;;5.57;3.20;;;;;;;32.51;36.59;98828.28;7014534;28;20225;-78
2022/09/06 09:49:32;;;;;;;5.03;3.57;;;;;;;32.30;35.91;98852.66;7022461;28;20284;-78
2022/09/06 09:52:53;;;;;;;5.63;3.37;;;;;;;32.50;36.17;98851.78;7009342;28;20275;-79
2022/09/06 09:56:17;;;;;;;3.77;3.30;;;;;;;32.97;36.28;98849.38;7030463;28;20365;-79
2022/09/06 09:59:42;;;;;;;5.57;3.30;;;;;;;33.27;34.94;98853.56;7021178;28;20211;-78
2022/09/06 10:03:12;;;;;;;6.33;3.27;;;;;;;32.86;35.17;98845.44;7006335;28;20327;-78
2022/09/06 10:06:34;;;;;;;5.17;3.40;;;;;;;32.22;37.06;98845.19;7006462;28;20370;-78
2022/09/06 10:10:00;;;;;;;7.07;3.43;;;;;;;33.54;35.09;98850.03;7006098;28;20843;-78
2022/09/06 10:13:25;;;;;;;8.13;3.30;;;;;;;33.53;34.77;98842.78;7017295;28;20202;-78
2022/09/06 10:16:46;;;;;;;4.97;3.00;;;;;;;33.80;34.75;98837.25;7016507;28;20259;-79
2022/09/06 10:20:11;;;;;;;4.43;3.07;;;;;;;34.77;32.11;98829.94;7006281;28;20357;-78
2022/09/06 10:23:39;;;;;;;6.00;3.00;;;;;;;35.59;30.37;98814.66;7006313;28;20270;-78
2022/09/06 10:27:01;;;;;;;6.00;2.63;;;;;;;35.41;31.42;98821.03;7020783;28;20240;-78
2022/09/06 10:30:24;;;;;;;5.30;3.00;;;;;;;35.40;31.35;98823.06;7006353;28;20240;-79
2022/09/06 10:33:57;;;;;;;4.73;3.00;;;;;;;33.29;32.86;98821.31;7006238;28;20362;-79
2022/09/06 10:37:28;;;;;;;5.50;2.90;;;;;;;34.21;32.98;98792.03;7024123;28;20224;-79
2022/09/06 10:40:57;;;;;;;7.80;3.43;;;;;;;34.75;32.90;98811.84;7033792;28;20337;-78
2022/09/06 10:44:31;;;;;;;5.17;3.13;;;;;;;34.22;33.84;98810.44;7025264;28;20193;-78
2022/09/06 10:47:59;;;;;;;5.57;3.53;;;;;;;35.09;32.17;98808.28;7025823;28;20754;-78
2022/09/06 10:51:35;;;;;;;6.50;2.90;;;;;;;34.74;33.16;98810.19;7026632;28;20578;-79
2022/09/06 10:55:01;;;;;;;7.30;3.87;;;;;;;33.71;34.17;98786.19;7035021;28;20292;-80
2022/09/06 10:58:29;;;;;;;6.13;2.90;;;;;;;33.45;34.21;98785.03;7035193;28;20246;-79
2022/09/06 11:01:59;;;;;;;7.93;3.40;;;;;;;33.62;33.83;98801.50;7035346;28;20293;-80
2022/09/06 11:05:24;;;;;;;6.70;3.47;;;;;;;34.06;33.89;98792.81;7025679;28;20224;-80
2022/09/06 11:08:50;;;;;;;7.30;3.50;;;;;;;33.78;35.15;98800.41;7010169;28;20207;-80
2022/09/06 11:12:15;;;;;;;6.30;3.30;;;;;;;33.76;34.52;98787.91;7010485;28;20294;-80
2022/09/06 11:15:42;;;;;;;8.57;3.50;;;;;;;33.06;35.68;98785.78;7034853;28;20272;-80
2022/09/06 11:19:07;;;;;;;7.37;3.40;;;;;;;33.39;35.12;98784.47;7018728;28;20212;-80
2022/09/06 11:22:56;;;;;;;8.60;3.30;;;;;;;33.57;34.75;98788.59;7011503;28;20348;-80
2022/09/06 11:26:35;;;;;;;8.13;3.60;;;;;;;33.36;34.50;98781.56;7014399;28;20322;-80
2022/09/06 11:29:59;;;;;;;5.90;2.73;;;;;;;33.16;34.91;98777.75;7032079;28;20797;-80
2022/09/06 11:33:24;;;;;;;7.60;3.10;;;;;;;33.12;35.44;98779.63;7009094;28;20267;-80
2022/09/06 11:36:47;;;;;;;6.90;3.00;;;;;;;33.21;35.00;98777.50;7011651;28;20234;-81
2022/09/06 11:40:16;;;;;;;6.73;3.43;;;;;;;33.78;34.67;98775.22;7018305;28;20235;-80
2022/09/06 11:43:46;;;;;;;9.13;3.40;;;;;;;33.30;34.91;98772.59;7023584;28;20304;-80
2022/09/06 11:47:10;;;;;;;8.60;3.40;;;;;;;33.49;34.32;98760.78;7034415;28;20227;-81
2022/09/06 11:51:00;;;;;;;6.97;3.40;;;;;;;33.06;34.99;98786.63;7038768;28;20232;-79
2022/09/06 11:54:25;;;;;;;8.47;3.37;;;;;;;34.40;33.48;98780.94;7037025;28;20620;-81
2022/09/06 11:57:53;;;;;;;4.70;3.17;;;;;;;34.29;33.04;98759.44;7030185;28;20232;-80
2022/09/06 12:01:36;;;;;;;7.53;3.37;;;;;;;33.94;32.25;98767.69;7018562;28;20254;-81
2022/09/06 12:05:15;;;;;;;7.07;2.80;;;;;;;34.40;32.98;98752.94;7026110;28;20289;-79
2022/09/06 12:08:37;;;;;;;10.43;3.33;;;;;;;34.29;33.11;98760.25;7041272;28;20292;-80
2022/09/06 12:11:59;;;;;;;8.77;3.57;;;;;;;35.03;31.62;98756.47;7033596;28;20254;-80
2022/09/06 12:15:25;;;;;;;5.83;3.40;;;;;;;34.92;31.32;98749.81;7013007;28;20284;-80
2022/09/06 12:18:59;;;;;;;4.07;3.13;;;;;;;34.88;31.47;98738.53;7021541;28;20292;-81
2022/09/06 12:23:03;;;;;;;9.90;3.10;;;;;;;35.13;31.66;98739.09;7007304;28;20554;-80
2022/09/06 12:26:45;;;;;;;5.27;3.30;;;;;;;35.56;29.94;98736.03;7005822;28;20248;-80
2022/09/06 12:30:10;;;;;;;8.20;3.10;;;;;;;34.71;31.07;98724.88;7014428;28;20286;-80
2022/09/06 12:33:37;;;;;;;6.03;3.37;;;;;;;34.55;31.08;98745.72;7019525;28;20557;-81
2022/09/06 12:37:01;;;;;;;5.77;3.00;;;;;;;35.93;29.20;98735.19;7006519;28;20226;-80
2022/09/06 12:40:23;;;;;;;4.57;2.67;;;;;;;35.11;30.13;98741.44;7005625;28;20221;-79
2022/09/06 12:43:45;;;;;;;6.13;3.37;;;;;;;35.25;28.58;98747.41;7006445;28;20288;-80
2022/09/06 12:47:10;;;;;;;5.17;2.87;;;;;;;33.84;32.93;98768.19;7012588;28;20804;-79
2022/09/06 12:50:33;;;;;;;6.73;3.27;;;;;;;31.89;39.73;98757.91;7004387;28;20219;-78
2022/09/06 12:53:57;;;;;;;7.43;3.47;;;;;;;30.92;41.79;98750.22;7003408;28;20548;-78
2022/09/06 12:57:21;;;;;;;5.33;3.00;;;;;;;31.08;39.15;98751.22;7003477;28;20233;-79
2022/09/06 13:00:45;;;;;;;8.43;3.30;;;;;;;30.99;43.68;98733.78;7005056;28;20295;-78
2022/09/06 13:04:09;;;;;;;8.00;2.67;;;;;;;31.57;38.27;98741.16;7005661;28;20288;-79
2022/09/06 13:07:34;;;;;;;6.27;3.43;;;;;;;31.44;41.08;98740.28;7009617;28;20648;-78
2022/09/06 13:10:56;;;;;;;7.67;3.33;;;;;;;30.70;43.11;98733.00;7002687;28;20224;-78
2022/09/06 13:14:19;;;;;;;7.07;3.30;;;;;;;30.57;44.24;98754.34;7003244;28;20209;-78
2022/09/06 13:17:41;;;;;;;5.33;3.40;;;;;;;30.09;44.43;98748.38;7002791;28;20229;-78
2022/09/06 13:21:04;;;;;;;8.20;3.00;;;;;;;30.44;43.20;98735.91;7003901;28;20221;-78
2022/09/06 13:24:40;;;;;;;5.07;2.77;;;;;;;30.33;41.81;98745.00;7004223;28;20204;-78
2022/09/06 13:28:02;;;;;;;6.63;2.80;;;;;;;30.01;44.13;98745.59;7028578;28;20210;-79
2022/09/06 13:31:25;;;;;;;3.73;2.73;;;;;;;30.22;43.17;98710.34;7031161;28;20297;-79
2022/09/06 13:34:51;;;;;;;5.53;3.17;;;;;;;30.50;47.22;98740.16;7023396;28;20680;-79
2022/09/06 13:38:20;;;;;;;5.93;3.10;;;;;;;30.09;47.52;98694.69;7030367;28;20195;-78
2022/09/06 13:41:44;;;;;;;5.70;3.10;;;;;;;30.47;45.77;98746.38;7030859;28;20717;-79
2022/09/06 13:45:24;;;;;;;6.60;3.60;;;;;;;30.73;46.63;98735.94;7030857;28;20219;-79
2022/09/06 13:48:46;;;;;;;5.87;3.10;;;;;;;30.52;45.19;98684.13;7030524;28;20202;-78
2022/09/06 13:52:07;;;;;;;3.07;2.70;;;;;;;30.10;46.83;98716.63;7046335;28;20222;-80
2022/09/06 13:55:31;;;;;;;4.80;2.97;;;;;;;30.43;46.78;98708.44;7036523;28;20241;-79
2022/09/06 13:58:54;;;;;;;5.87;3.17;;;;;;;30.43;44.92;98689.75;7030131;28;20256;-79
2022/09/06 14:02:18;;;;;;;6.83;3.40;;;;;;;30.90;46.33;98690.44;7033322;28;20283;-79
2022/09/06 14:05:39;;;;;;;8.30;3.33;;;;;;;30.90;45.33;98691.25;7033074;28;20769;-79
2022/09/06 14:09:01;;;;;;;6.47;3.27;;;;;;;31.11;44.63;98668.94;7026403;28;20273;-79
2022/09/06 14:12:22;;;;;;;7.07;3.13;;;;;;;31.30;43.63;98692.41;7016796;28;20223;-78
2022/09/06 14:15:46;;;;;;;3.77;3.17;;;;;;;31.14;43.47;98659.94;7031743;28;20228;-79
2022/09/06 14:19:07;;;;;;;5.00;2.87;;;;;;;30.58;41.79;98677.22;7031234;28;20295;-79
2022/09/06 14:22:29;;;;;;;5.47;3.03;;;;;;;31.09;43.27;98674.06;7004311;28;20212;-79
2022/09/06 14:25:55;;;;;;;6.73;3.00;;;;;;;30.70;44.99;98647.53;7013796;28;20235;-79
2022/09/06 14:29:17;;;;;;;4.53;2.73;;;;;;;30.10;44.75;98663.78;7015309;28;20203;-78
2022/09/06 14:32:39;;;;;;;4.13;2.87;;;;;;;30.96;44.08;98667.59;7004034;28;20330;-79
2022/09/06 14:36:05;;;;;;;5.57;3.10;;;;;;;31.09;44.86;98676.84;7022538;28;20307;-79
2022/09/06 14:39:27;;;;;;;5.00;3.37;;;;;;;31.01;46.00;98666.59;7036659;28;20240;-79
2022/09/06 14:42:49;;;;;;;5.00;3.00;;;;;;;30.94;43.30;98680.25;7037837;28;20212;-79
2022/09/06 14:46:12;;;;;;;5.07;3.10;;;;;;;30.90;44.29;98694.03;7037892;28;20223;-79
2022/09/06 14:49:35;;;;;;;4.20;3.13;;;;;;;31.05;43.09;98701.78;7037409;28;20205;-79
2022/09/06 14:52:57;;;;;;;6.23;3.50;;;;;;;31.04;43.42;98686.22;7037859;28;20246;-80
2022/09/06 14:56:19;;;;;;;5.93;3.57;;;;;;;31.02;45.83;98701.66;7037819;28;20249;-79
2022/09/06 14:59:41;;;;;;;5.97;3.50;;;;;;;31.02;45.69;98712.81;7035953;28;20214;-79
2022/09/06 15:03:02;;;;;;;4.93;3.40;;;;;;;30.29;46.82;98699.50;7037104;28;20845;-79
2022/09/06 15:06:26;;;;;;;4.90;3.33;;;;;;;30.06;47.10;98673.91;7036976;28;20239;-79
2022/09/06 15:09:49;;;;;;;4.90;3.90;;;;;;;29.76;47.46;98679.75;7036041;28;20212;-80
2022/09/06 15:13:11;;;;;;;11.60;6.50;;;;;;;29.62;49.33;98677.22;7035999;28;20198;-78
2022/09/06 15:16:34;;;;;;;5.60;3.70;;;;;;;30.08;48.60;98682.72;7032044;28;20227;-78
2022/09/06 15:19:55;;;;;;;6.37;3.60;;;;;;;30.14;48.79;98667.50;7033933;28;20295;-78
2022/09/06 15:23:18;;;;;;;6.33;3.80;;;;;;;30.39;48.18;98674.91;7034175;28;20215;-78
2022/09/06 15:26:42;;;;;;;6.20;3.90;;;;;;;30.41;47.58;98680.13;7033950;28;20231;-78
2022/09/06 15:30:05;;;;;;;9.30;4.40;;;;;;;30.56;46.88;98685.09;7033565;28;20207;-79
2022/09/06 15:33:28;;;;;;;5.73;4.17;;;;;;;30.45;46.75;98653.25;7034779;28;20215;-77
2022/09/06 15:36:51;;;;;;;6.07;3.80;;;;;;;30.92;44.51;98657.50;7046324;28;20222;-77
2022/09/06 15:40:14;;;;;;;8.43;4.47;;;;;;;31.36;44.75;98656.78;7045087;28;20203;-80
2022/09/06 15:43:41;;;;;;;8.47;3.73;;;;;;;31.60;44.24;98632.56;7029297;28;20573;-78
2022/09/06 15:47:03;;;;;;;5.97;4.00;;;;;;;30.81;44.62;98657.09;7017101;28;20311;-78
2022/09/06 15:50:25;;;;;;;5.93;4.10;;;;;;;30.77;44.77;98650.59;7035019;28;20700;-78
2022/09/06 15:53:47;;;;;;;10.53;4.37;;;;;;;31.00;44.07;98649.06;7034537;28;20207;-78
2022/09/06 15:57:13;;;;;;;8.63;3.90;;;;;;;30.90;42.57;98648.69;7044519;28;20222;-77
2022/09/06 16:00:35;;;;;;;8.43;3.83;;;;;;;31.24;41.42;98638.03;7045976;28;20222;-78
2022/09/06 16:04:02;;;;;;;4.73;3.60;;;;;;;30.29;45.77;98622.44;7033757;28;20210;-78